sensor_id;sensor_type;location;lat;lon;timestamp;pressure;altitude;pressure_sealevel;temperature;humidity
23118;BME280;11728;50.624;6.014;2023-02-20T00:02:42;99400.56;;;5.43;100.00
23118;BME280;11728;50.624;6.014;2023-02-20T00:07:43;99390.03;;;5.38;100.00
23118;BME280;11728;50.624;6.014;2023-02-20T00:12:43;99388.31;;;5.37;100.00
23118;BME280;11728;50.624;6.014;2023-02-20T00:17:45;99383.00;;;5.36;100.00
23118;BME280;11728;50.624;6.014;2023-02-20T00:22:49;99373.34;;;5.31;100.00
23118;BME280;11728;50.624;6.014;2023-02-20T00:27:49;99378.63;;;5.35;100.00
23118;BME280;11728;50.624;6.014;2023-02-20T00:32:51;99356.81;;;5.33;100.00
23118;BME280;11728;50.624;6.014;2023-02-20T00:37:53;99365.53;;;5.35;100.00
23118;BME280;11728;50.624;6.014;2023-02-20T00:42:54;99348.19;;;5.40;100.00
23118;BME280;11728;50.624;6.014;2023-02-20T00:47:55;99338.66;;;5.46;100.00
23118;BME280;11728;50.624;6.014;2023-02-20T00:52:56;99350.09;;;5.54;100.00
23118;BME280;11728;50.624;6.014;2023-02-20T00:57:56;99339.00;;;5.72;100.00
23118;BME280;11728;50.624;6.014;2023-02-20T01:02:56;99345.22;;;5.77;100.00
23118;BME280;11728;50.624;6.014;2023-02-20T01:07:57;99333.00;;;5.79;100.00
23118;BME280;11728;50.624;6.014;2023-02-20T01:12:57;99334.91;;;5.90;100.00
23118;BME280;11728;50.624;6.014;2023-02-20T01:17:57;99327.94;;;5.92;100.00
23118;BME280;11728;50.624;6.014;2023-02-20T01:22:58;99319.94;;;5.82;100.00
23118;BME280;11728;50.624;6.014;2023-02-20T01:27:58;99318.09;;;5.75;100.00
23118;BME280;11728;50.624;6.014;2023-02-20T01:32:58;99323.28;;;5.72;100.00
23118;BME280;11728;50.624;6.014;2023-02-20T01:37:59;99316.19;;;5.65;100.00
23118;BME280;11728;50.624;6.014;2023-02-20T01:43:01;99305.69;;;5.62;100.00
23118;BME280;11728;50.624;6.014;2023-02-20T01:48:01;99316.09;;;5.56;100.00
23118;BME280;11728;50.624;6.014;2023-02-20T01:53:07;99304.72;;;5.57;100.00
23118;BME280;11728;50.624;6.014;2023-02-20T01:58:30;99289.84;;;5.53;100.00
23118;BME280;11728;50.624;6.014;2023-02-20T02:03:36;99299.41;;;5.48;100.00
23118;BME280;11728;50.624;6.014;2023-02-20T02:08:38;99287.97;;;5.43;100.00
23118;BME280;11728;50.624;6.014;2023-02-20T02:13:39;99283.56;;;5.40;100.00
23118;BME280;11728;50.624;6.014;2023-02-20T02:34:37;99266.94;;;5.37;100.00
23118;BME280;11728;50.624;6.014;2023-02-20T02:39:49;99243.38;;;5.35;100.00
23118;BME280;11728;50.624;6.014;2023-02-20T02:45:18;99243.38;;;5.37;100.00
23118;BME280;11728;50.624;6.014;2023-02-20T02:50:31;99244.22;;;5.36;100.00
23118;BME280;11728;50.624;6.014;2023-02-20T02:55:34;99235.50;;;5.34;100.00
23118;BME280;11728;50.624;6.014;2023-02-20T03:00:37;99228.50;;;5.34;100.00
23118;BME280;11728;50.624;6.014;2023-02-20T03:05:46;99225.03;;;5.34;100.00
23118;BME280;11728;50.624;6.014;2023-02-20T03:10:49;99217.06;;;5.27;100.00
23118;BME280;11728;50.624;6.014;2023-02-20T03:15:53;99209.13;;;5.22;100.00
23118;BME280;11728;50.624;6.014;2023-02-20T03:20:58;99197.75;;;5.20;100.00
23118;BME280;11728;50.624;6.014;2023-02-20T03:26:09;99195.19;;;5.22;100.00
23118;BME280;11728;50.624;6.014;2023-02-20T03:31:51;99195.19;;;5.25;100.00
23118;BME280;11728;50.624;6.014;2023-02-20T03:37:15;99179.56;;;5.29;100.00
23118;BME280;11728;50.624;6.014;2023-02-20T03:42:36;99174.34;;;5.31;100.00
23118;BME280;11728;50.624;6.014;2023-02-20T03:48:02;99172.66;;;5.34;100.00
23118;BME280;11728;50.624;6.014;2023-02-20T03:53:03;99170.91;;;5.36;100.00
23118;BME280;11728;50.624;6.014;2023-02-20T03:58:06;99175.41;;;5.44;100.00
23118;BME280;11728;50.624;6.014;2023-02-20T04:03:16;99172.78;;;5.46;100.00
23118;BME280;11728;50.624;6.014;2023-02-20T04:08:27;99164.91;;;5.44;100.00
23118;BME280;11728;50.624;6.014;2023-02-20T04:13:36;99162.25;;;5.41;100.00
23118;BME280;11728;50.624;6.014;2023-02-20T04:18:38;99172.75;;;5.43;100.00
23118;BME280;11728;50.624;6.014;2023-02-20T04:23:41;99167.53;;;5.46;100.00
23118;BME280;11728;50.624;6.014;2023-02-20T04:28:45;99171.88;;;5.41;100.00
23118;BME280;11728;50.624;6.014;2023-02-20T04:33:46;99170.84;;;5.31;100.00
23118;BME280;11728;50.624;6.014;2023-02-20T04:38:46;99175.09;;;5.22;100.00
23118;BME280;11728;50.624;6.014;2023-02-20T04:43:46;99177.84;;;5.31;100.00
23118;BME280;11728;50.624;6.014;2023-02-20T04:48:48;99184.16;;;5.49;100.00
23118;BME280;11728;50.624;6.014;2023-02-20T04:53:48;99183.38;;;5.58;100.00
23118;BME280;11728;50.624;6.014;2023-02-20T04:58:49;99180.00;;;5.68;100.00
23118;BME280;11728;50.624;6.014;2023-02-20T05:03:49;99185.25;;;5.68;100.00
23118;BME280;11728;50.624;6.014;2023-02-20T05:08:49;99178.25;;;5.64;100.00
23118;BME280;11728;50.624;6.014;2023-02-20T05:13:50;99187.81;;;5.63;100.00
23118;BME280;11728;50.624;6.014;2023-02-20T05:18:50;99184.28;;;5.61;100.00
23118;BME280;11728;50.624;6.014;2023-02-20T05:23:50;99174.66;;;5.56;100.00
23118;BME280;11728;50.624;6.014;2023-02-20T05:28:51;99178.97;;;5.52;100.00
23118;BME280;11728;50.624;6.014;2023-02-20T05:33:51;99182.41;;;5.45;100.00
23118;BME280;11728;50.624;6.014;2023-02-20T05:38:52;99166.63;;;5.42;100.00
23118;BME280;11728;50.624;6.014;2023-02-20T05:43:52;99172.72;;;5.40;100.00
23118;BME280;11728;50.624;6.014;2023-02-20T05:48:56;99164.03;;;5.44;100.00
23118;BME280;11728;50.624;6.014;2023-02-20T05:53:57;99161.41;;;5.44;100.00
23118;BME280;11728;50.624;6.014;2023-02-20T05:58:57;99158.72;;;5.36;100.00
23118;BME280;11728;50.624;6.014;2023-02-20T06:03:58;99155.13;;;5.27;100.00
23118;BME280;11728;50.624;6.014;2023-02-20T06:09:00;99150.75;;;5.29;100.00
23118;BME280;11728;50.624;6.014;2023-02-20T06:14:02;99156.91;;;5.31;100.00
23118;BME280;11728;50.624;6.014;2023-02-20T06:19:03;99149.94;;;5.33;100.00
23118;BME280;11728;50.624;6.014;2023-02-20T06:24:05;99155.16;;;5.31;100.00
23118;BME280;11728;50.624;6.014;2023-02-20T06:29:06;99160.38;;;5.29;100.00
23118;BME280;11728;50.624;6.014;2023-02-20T06:34:07;99156.91;;;5.32;100.00
23118;BME280;11728;50.624;6.014;2023-02-20T06:39:10;99163.00;;;5.31;100.00
23118;BME280;11728;50.624;6.014;2023-02-20T06:44:10;99151.53;;;5.22;100.00
23118;BME280;11728;50.624;6.014;2023-02-20T06:49:11;99151.53;;;5.22;100.00
23118;BME280;11728;50.624;6.014;2023-02-20T06:54:12;99161.16;;;5.25;100.00
23118;BME280;11728;50.624;6.014;2023-02-20T06:59:13;99153.38;;;5.28;100.00
23118;BME280;11728;50.624;6.014;2023-02-20T07:04:19;99153.41;;;5.31;100.00
23118;BME280;11728;50.624;6.014;2023-02-20T07:09:20;99158.66;;;5.31;100.00
23118;BME280;11728;50.624;6.014;2023-02-20T07:14:21;99155.25;;;5.40;100.00
23118;BME280;11728;50.624;6.014;2023-02-20T07:19:22;99157.13;;;5.50;100.00
23118;BME280;11728;50.624;6.014;2023-02-20T07:24:22;99154.03;;;5.86;100.00
23118;BME280;11728;50.624;6.014;2023-02-20T07:29:22;99156.38;;;6.58;100.00
23118;BME280;11728;50.624;6.014;2023-02-20T07:34:23;99148.22;;;8.20;98.98
23118;BME280;11728;50.624;6.014;2023-02-20T07:39:23;99146.06;;;9.68;93.45
23118;BME280;11728;50.624;6.014;2023-02-20T07:44:25;99143.66;;;10.55;86.66
23118;BME280;11728;50.624;6.014;2023-02-20T07:49:25;99155.34;;;11.17;81.62
23118;BME280;11728;50.624;6.014;2023-02-20T07:54:26;99150.81;;;11.96;78.85
23118;BME280;11728;50.624;6.014;2023-02-20T07:59:26;99155.44;;;12.37;75.84
23118;BME280;11728;50.624;6.014;2023-02-20T08:04:26;99143.28;;;12.76;73.46
23118;BME280;11728;50.624;6.014;2023-02-20T08:09:27;99149.28;;;12.90;71.00
23118;BME280;11728;50.624;6.014;2023-02-20T08:14:27;99161.28;;;13.52;70.28
23118;BME280;11728;50.624;6.014;2023-02-20T08:19:27;99167.38;;;13.98;68.04
23118;BME280;11728;50.624;6.014;2023-02-20T08:24:28;99167.66;;;14.25;65.09
23118;BME280;11728;50.624;6.014;2023-02-20T08:29:28;99179.44;;;14.86;64.49
23118;BME280;11728;50.624;6.014;2023-02-20T08:34:28;99177.72;;;15.17;63.27
23118;BME280;11728;50.624;6.014;2023-02-20T08:39:29;99174.97;;;14.87;63.35
23118;BME280;11728;50.624;6.014;2023-02-20T08:44:29;99165.16;;;14.18;65.59
23118;BME280;11728;50.624;6.014;2023-02-20T08:49:29;99166.31;;;14.79;65.08
23118;BME280;11728;50.624;6.014;2023-02-20T08:54:30;99176.19;;;14.39;63.95
23118;BME280;11728;50.624;6.014;2023-02-20T08:59:31;99191.97;;;13.23;65.53
23118;BME280;11728;50.624;6.014;2023-02-20T09:04:31;99197.59;;;13.05;66.93
23118;BME280;11728;50.624;6.014;2023-02-20T09:09:32;99204.16;;;12.83;68.16
23118;BME280;11728;50.624;6.014;2023-02-20T09:14:32;99211.88;;;12.98;67.68
23118;BME280;11728;50.624;6.014;2023-02-20T09:19:33;99221.00;;;12.24;68.60
23118;BME280;11728;50.624;6.014;2023-02-20T09:24:34;99216.94;;;11.25;71.18
23118;BME280;11728;50.624;6.014;2023-02-20T09:29:37;99227.34;;;10.47;74.08
23118;BME280;11728;50.624;6.014;2023-02-20T09:34:40;99223.25;;;10.04;76.32
23118;BME280;11728;50.624;6.014;2023-02-20T09:39:43;99223.31;;;9.88;77.90
23118;BME280;11728;50.624;6.014;2023-02-20T09:49:51;99200.97;;;10.46;78.09
23118;BME280;11728;50.624;6.014;2023-02-20T09:55:00;99204.38;;;11.45;73.34
23118;BME280;11728;50.624;6.014;2023-02-20T10:00:03;99204.91;;;10.97;75.14
23118;BME280;11728;50.624;6.014;2023-02-20T10:05:20;99194.78;;;10.50;76.00
23118;BME280;11728;50.624;6.014;2023-02-20T10:10:26;99199.44;;;10.10;77.75
23118;BME280;11728;50.624;6.014;2023-02-20T10:16:15;99188.09;;;9.92;79.16
23118;BME280;11728;50.624;6.014;2023-02-20T10:26:46;99188.78;;;10.28;78.69
23118;BME280;11728;50.624;6.014;2023-02-20T10:32:08;99180.19;;;9.92;79.53
23118;BME280;11728;50.624;6.014;2023-02-20T10:42:14;99182.78;;;10.04;79.50
23118;BME280;11728;50.624;6.014;2023-02-20T10:52:26;99187.22;;;9.96;80.15
23118;BME280;11728;50.624;6.014;2023-02-20T10:57:34;99178.03;;;10.49;79.44
23118;BME280;11728;50.624;6.014;2023-02-20T11:02:45;99175.22;;;10.69;78.24
23118;BME280;11728;50.624;6.014;2023-02-20T11:07:50;99163.72;;;10.75;78.65
23118;BME280;11728;50.624;6.014;2023-02-20T11:12:55;99166.47;;;10.64;78.60
23118;BME280;11728;50.624;6.014;2023-02-20T11:17:59;99159.50;;;11.38;78.42
23118;BME280;11728;50.624;6.014;2023-02-20T11:23:00;99153.69;;;11.81;74.82
23118;BME280;11728;50.624;6.014;2023-02-20T11:28:20;99143.44;;;12.16;74.73
23118;BME280;11728;50.624;6.014;2023-02-20T11:33:23;99119.22;;;14.14;69.58
23118;BME280;11728;50.624;6.014;2023-02-20T11:38:30;99106.91;;;16.01;62.92
23118;BME280;11728;50.624;6.014;2023-02-20T11:48:35;99102.09;;;17.64;56.30
23118;BME280;11728;50.624;6.014;2023-02-20T11:53:35;99098.00;;;18.23;52.81
23118;BME280;11728;50.624;6.014;2023-02-20T11:58:37;99075.09;;;18.58;51.33
23118;BME280;11728;50.624;6.014;2023-02-20T12:03:37;99076.69;;;18.62;50.31
23118;BME280;11728;50.624;6.014;2023-02-20T12:08:53;99059.44;;;18.28;49.87
23118;BME280;11728;50.624;6.014;2023-02-20T12:13:57;99043.53;;;18.86;49.83
23118;BME280;11728;50.624;6.014;2023-02-20T12:24:05;99047.03;;;19.46;47.40
23118;BME280;11728;50.624;6.014;2023-02-20T12:34:50;99039.75;;;19.68;46.32
23118;BME280;11728;50.624;6.014;2023-02-20T12:40:02;99027.84;;;19.74;46.76
23118;BME280;11728;50.624;6.014;2023-02-20T12:45:15;99039.66;;;20.25;46.81
23118;BME280;11728;50.624;6.014;2023-02-20T13:01:11;99026.00;;;17.95;50.44
23118;BME280;11728;50.624;6.014;2023-02-20T13:06:20;99014.81;;;16.46;54.03
23118;BME280;11728;50.624;6.014;2023-02-20T13:11:25;98999.69;;;16.19;55.41
23118;BME280;11728;50.624;6.014;2023-02-20T13:21:36;98977.97;;;16.05;56.93
23118;BME280;11728;50.624;6.014;2023-02-20T13:46:59;98948.16;;;19.59;48.54
23118;BME280;11728;50.624;6.014;2023-02-20T14:02:43;98911.34;;;20.16;47.67
23118;BME280;11728;50.624;6.014;2023-02-20T14:07:45;98907.31;;;20.08;46.91
23118;BME280;11728;50.624;6.014;2023-02-20T14:12:53;98885.78;;;19.74;46.93
23118;BME280;11728;50.624;6.014;2023-02-20T14:17:55;98867.16;;;19.35;47.38
23118;BME280;11728;50.624;6.014;2023-02-20T14:23:17;98867.78;;;19.24;47.94
23118;BME280;11728;50.624;6.014;2023-02-20T14:28:18;98851.41;;;19.11;47.72
23118;BME280;11728;50.624;6.014;2023-02-20T14:33:27;98847.75;;;18.75;47.66
23118;BME280;11728;50.624;6.014;2023-02-20T14:43:34;98841.88;;;17.25;51.20
23118;BME280;11728;50.624;6.014;2023-02-20T14:48:36;98846.75;;;16.70;55.53
23118;BME280;11728;50.624;6.014;2023-02-20T14:53:37;98852.81;;;17.41;56.20
23118;BME280;11728;50.624;6.014;2023-02-20T14:58:38;98847.41;;;17.21;53.69
23118;BME280;11728;50.624;6.014;2023-02-20T15:03:38;98867.00;;;16.76;54.38
23118;BME280;11728;50.624;6.014;2023-02-20T15:08:39;98861.03;;;15.96;55.61
23118;BME280;11728;50.624;6.014;2023-02-20T15:13:41;98873.50;;;15.44;57.16
23118;BME280;11728;50.624;6.014;2023-02-20T15:18:44;98867.16;;;15.21;57.70
23118;BME280;11728;50.624;6.014;2023-02-20T15:23:45;98866.84;;;15.31;57.86
23118;BME280;11728;50.624;6.014;2023-02-20T15:28:45;98869.31;;;15.37;58.10
23118;BME280;11728;50.624;6.014;2023-02-20T15:33:51;98848.53;;;15.21;58.25
23118;BME280;11728;50.624;6.014;2023-02-20T15:38:55;98850.94;;;15.01;57.93
23118;BME280;11728;50.624;6.014;2023-02-20T15:43:56;98833.88;;;15.08;57.94
23118;BME280;11728;50.624;6.014;2023-02-20T15:48:57;98836.63;;;15.05;58.05
23118;BME280;11728;50.624;6.014;2023-02-20T15:53:58;98837.63;;;15.01;58.39
23118;BME280;11728;50.624;6.014;2023-02-20T15:59:03;98838.66;;;14.97;58.74
23118;BME280;11728;50.624;6.014;2023-02-20T16:04:08;98853.34;;;14.81;59.46
23118;BME280;11728;50.624;6.014;2023-02-20T16:09:08;98846.75;;;14.65;59.72
23118;BME280;11728;50.624;6.014;2023-02-20T16:14:12;98855.34;;;14.44;60.12
23118;BME280;11728;50.624;6.014;2023-02-20T16:19:16;98860.03;;;14.04;61.23
23118;BME280;11728;50.624;6.014;2023-02-20T16:24:17;98860.56;;;13.52;64.14
23118;BME280;11728;50.624;6.014;2023-02-20T16:29:32;98857.53;;;12.94;67.72
23118;BME280;11728;50.624;6.014;2023-02-20T16:34:35;98851.50;;;12.48;69.76
23118;BME280;11728;50.624;6.014;2023-02-20T16:39:37;98857.75;;;12.04;71.50
23118;BME280;11728;50.624;6.014;2023-02-20T16:44:42;98854.16;;;11.61;73.21
23118;BME280;11728;50.624;6.014;2023-02-20T16:49:43;98857.34;;;11.27;74.46
23118;BME280;11728;50.624;6.014;2023-02-20T16:54:45;98870.13;;;10.99;75.74
23118;BME280;11728;50.624;6.014;2023-02-20T16:59:46;98882.84;;;10.73;77.05
23118;BME280;11728;50.624;6.014;2023-02-20T17:04:47;98874.28;;;10.57;77.80
23118;BME280;11728;50.624;6.014;2023-02-20T17:09:48;98891.13;;;10.47;78.27
23118;BME280;11728;50.624;6.014;2023-02-20T17:14:49;98891.34;;;10.30;79.00
23118;BME280;11728;50.624;6.014;2023-02-20T17:19:52;98892.44;;;10.13;79.90
23118;BME280;11728;50.624;6.014;2023-02-20T17:24:55;98890.81;;;10.01;80.54
23118;BME280;11728;50.624;6.014;2023-02-20T17:29:56;98907.53;;;9.96;80.03
23118;BME280;11728;50.624;6.014;2023-02-20T17:34:57;98922.75;;;9.72;81.29
23118;BME280;11728;50.624;6.014;2023-02-20T17:39:57;98928.25;;;9.46;82.06
23118;BME280;11728;50.624;6.014;2023-02-20T17:44:58;98926.53;;;9.38;82.95
23118;BME280;11728;50.624;6.014;2023-02-20T17:49:59;98938.00;;;9.34;83.65
23118;BME280;11728;50.624;6.014;2023-02-20T17:54:59;98953.78;;;9.37;84.78
23118;BME280;11728;50.624;6.014;2023-02-20T18:00:00;98951.97;;;9.43;84.57
23118;BME280;11728;50.624;6.014;2023-02-20T18:05:00;98954.63;;;9.43;85.13
23118;BME280;11728;50.624;6.014;2023-02-20T18:10:00;98957.28;;;9.39;85.58
23118;BME280;11728;50.624;6.014;2023-02-20T18:15:02;98962.56;;;9.42;85.38
23118;BME280;11728;50.624;6.014;2023-02-20T18:20:02;98961.59;;;9.50;84.70
23118;BME280;11728;50.624;6.014;2023-02-20T18:25:03;98951.16;;;9.38;85.16
23118;BME280;11728;50.624;6.014;2023-02-20T18:30:07;98941.63;;;9.18;86.40
23118;BME280;11728;50.624;6.014;2023-02-20T18:35:07;98952.22;;;9.11;86.61
23118;BME280;11728;50.624;6.014;2023-02-20T18:40:09;98944.28;;;9.17;86.60
23118;BME280;11728;50.624;6.014;2023-02-20T18:45:09;98942.56;;;9.11;87.51
23118;BME280;11728;50.624;6.014;2023-02-20T18:50:10;98937.31;;;9.07;88.61
23118;BME280;11728;50.624;6.014;2023-02-20T18:55:10;98934.66;;;9.11;88.64
23118;BME280;11728;50.624;6.014;2023-02-20T19:00:21;98944.34;;;9.05;89.18
23118;BME280;11728;50.624;6.014;2023-02-20T19:05:24;98940.03;;;8.96;89.94
23118;BME280;11728;50.624;6.014;2023-02-20T19:10:26;98919.00;;;8.87;91.60
23118;BME280;11728;50.624;6.014;2023-02-20T19:15:26;98932.22;;;8.84;91.61
23118;BME280;11728;50.624;6.014;2023-02-20T19:20:28;98930.38;;;8.94;91.09
23118;BME280;11728;50.624;6.014;2023-02-20T19:25:30;98929.47;;;9.01;91.24
23118;BME280;11728;50.624;6.014;2023-02-20T19:30:30;98932.97;;;8.97;91.51
23118;BME280;11728;50.624;6.014;2023-02-20T19:35:31;98916.38;;;8.87;92.13
23118;BME280;11728;50.624;6.014;2023-02-20T19:40:31;98907.63;;;8.84;92.84
23118;BME280;11728;50.624;6.014;2023-02-20T19:45:32;98918.16;;;8.87;92.99
23118;BME280;11728;50.624;6.014;2023-02-20T19:50:32;98917.28;;;8.85;92.57
23118;BME280;11728;50.624;6.014;2023-02-20T19:55:34;98907.69;;;8.70;92.36
23118;BME280;11728;50.624;6.014;2023-02-20T20:00:35;98905.13;;;8.58;93.56
23118;BME280;11728;50.624;6.014;2023-02-20T20:05:35;98916.47;;;8.68;93.13
23118;BME280;11728;50.624;6.014;2023-02-20T20:10:36;98912.94;;;8.78;92.79
23118;BME280;11728;50.624;6.014;2023-02-20T20:15:36;98921.63;;;8.92;92.46
23118;BME280;11728;50.624;6.014;2023-02-20T20:20:37;98910.16;;;8.99;91.74
23118;BME280;11728;50.624;6.014;2023-02-20T20:25:37;98910.97;;;9.10;91.35
23118;BME280;11728;50.624;6.014;2023-02-20T20:30:37;98918.94;;;8.99;91.76
23118;BME280;11728;50.624;6.014;2023-02-20T20:35:38;98911.88;;;9.04;92.09
23118;BME280;11728;50.624;6.014;2023-02-20T20:40:38;98903.91;;;9.12;91.29
23118;BME280;11728;50.624;6.014;2023-02-20T20:45:39;98902.13;;;9.17;91.03
23118;BME280;11728;50.624;6.014;2023-02-20T20:50:39;98901.25;;;9.18;90.12
23118;BME280;11728;50.624;6.014;2023-02-20T20:55:39;98901.28;;;9.12;90.89
23118;BME280;11728;50.624;6.014;2023-02-20T21:00:40;98893.34;;;9.18;90.37
23118;BME280;11728;50.624;6.014;2023-02-20T21:05:40;98893.41;;;9.09;90.58
23118;BME280;11728;50.624;6.014;2023-02-20T21:10:40;98888.19;;;9.00;91.18
23118;BME280;11728;50.624;6.014;2023-02-20T21:15:41;98886.53;;;8.85;92.35
23118;BME280;11728;50.624;6.014;2023-02-20T21:20:41;98892.75;;;8.80;92.73
23118;BME280;11728;50.624;6.014;2023-02-20T21:25:42;98907.66;;;8.78;93.12
23118;BME280;11728;50.624;6.014;2023-02-20T21:30:42;98905.84;;;8.87;92.62
23118;BME280;11728;50.624;6.014;2023-02-20T21:35:42;98889.16;;;8.85;92.98
23118;BME280;11728;50.624;6.014;2023-02-20T21:40:43;98897.13;;;8.81;93.06
23118;BME280;11728;50.624;6.014;2023-02-20T21:45:43;98884.78;;;8.83;93.44
23118;BME280;11728;50.624;6.014;2023-02-20T21:50:44;98885.66;;;8.89;93.21
23118;BME280;11728;50.624;6.014;2023-02-20T21:55:45;98878.59;;;8.96;93.11
23118;BME280;11728;50.624;6.014;2023-02-20T22:00:45;98869.81;;;8.92;93.13
23118;BME280;11728;50.624;6.014;2023-02-20T22:05:46;98875.06;;;8.92;93.02
23118;BME280;11728;50.624;6.014;2023-02-20T22:10:46;98879.47;;;8.89;93.30
23118;BME280;11728;50.624;6.014;2023-02-20T22:16:05;98880.34;;;8.91;92.92
23118;BME280;11728;50.624;6.014;2023-02-20T22:21:24;98868.09;;;8.85;93.66
23118;BME280;11728;50.624;6.014;2023-02-20T22:26:43;98881.22;;;8.90;93.78
23118;BME280;11728;50.624;6.014;2023-02-20T22:32:02;98872.50;;;8.88;93.47
23118;BME280;11728;50.624;6.014;2023-02-20T22:37:23;98883.03;;;8.88;93.31
23118;BME280;11728;50.624;6.014;2023-02-20T22:42:42;98869.84;;;8.86;93.77
23118;BME280;11728;50.624;6.014;2023-02-20T22:48:01;98869.91;;;8.80;93.95
23118;BME280;11728;50.624;6.014;2023-02-20T22:53:19;98855.06;;;8.69;94.47
23118;BME280;11728;50.624;6.014;2023-02-20T22:58:38;98849.84;;;8.63;94.64
23118;BME280;11728;50.624;6.014;2023-02-20T23:03:57;98849.00;;;8.55;95.53
23118;BME280;11728;50.624;6.014;2023-02-20T23:09:16;98849.94;;;8.45;96.19
23118;BME280;11728;50.624;6.014;2023-02-20T23:14:35;98855.22;;;8.42;96.16
23118;BME280;11728;50.624;6.014;2023-02-20T23:19:54;98844.66;;;8.45;96.55
23118;BME280;11728;50.624;6.014;2023-02-20T23:25:13;98842.94;;;8.44;96.50
23118;BME280;11728;50.624;6.014;2023-02-20T23:30:32;98840.31;;;8.41;96.83
23118;BME280;11728;50.624;6.014;2023-02-20T23:35:50;98835.06;;;8.40;97.02
23118;BME280;11728;50.624;6.014;2023-02-20T23:41:09;98823.69;;;8.36;97.25
23118;BME280;11728;50.624;6.014;2023-02-20T23:46:28;98832.47;;;8.32;97.20
23118;BME280;11728;50.624;6.014;2023-02-20T23:51:47;98825.41;;;8.37;97.28
23118;BME280;11728;50.624;6.014;2023-02-20T23:57:05;98834.22;;;8.36;97.25
